sensor_id;sensor_type;location;lat;lon;timestamp;P1;durP1;ratioP1;P2;durP2;ratioP2
43504;SDS011;29098;48.184;16.298;2022-07-15T00:00:20;3.85;;;1.50;;
43504;SDS011;29098;48.184;16.298;2022-07-15T00:02:46;3.58;;;2.05;;
43504;SDS011;29098;48.184;16.298;2022-07-15T00:05:12;4.93;;;1.90;;
43504;SDS011;29098;48.184;16.298;2022-07-15T00:07:38;4.50;;;1.75;;
43504;SDS011;29098;48.184;16.298;2022-07-15T00:10:03;4.10;;;1.60;;
43504;SDS011;29098;48.184;16.298;2022-07-15T00:12:50;3.55;;;2.00;;
43504;SDS011;29098;48.184;16.298;2022-07-15T00:15:18;4.03;;;1.88;;
43504;SDS011;29098;48.184;16.298;2022-07-15T00:17:48;3.45;;;2.20;;
43504;SDS011;29098;48.184;16.298;2022-07-15T00:20:13;3.45;;;1.75;;
43504;SDS011;29098;48.184;16.298;2022-07-15T00:22:40;4.07;;;1.95;;
43504;SDS011;29098;48.184;16.298;2022-07-15T00:25:07;2.92;;;1.77;;
43504;SDS011;29098;48.184;16.298;2022-07-15T00:27:34;6.03;;;2.58;;
43504;SDS011;29098;48.184;16.298;2022-07-15T00:30:02;3.05;;;1.67;;
43504;SDS011;29098;48.184;16.298;2022-07-15T00:32:28;3.53;;;1.90;;
43504;SDS011;29098;48.184;16.298;2022-07-15T00:34:54;5.28;;;2.97;;
43504;SDS011;29098;48.184;16.298;2022-07-15T00:37:20;5.70;;;2.70;;
43504;SDS011;29098;48.184;16.298;2022-07-15T00:39:46;8.52;;;2.45;;
43504;SDS011;29098;48.184;16.298;2022-07-15T00:42:12;7.65;;;3.13;;
43504;SDS011;29098;48.184;16.298;2022-07-15T00:45:01;3.22;;;2.10;;
43504;SDS011;29098;48.184;16.298;2022-07-15T00:47:27;5.15;;;2.90;;
43504;SDS011;29098;48.184;16.298;2022-07-15T00:49:53;5.32;;;2.50;;
43504;SDS011;29098;48.184;16.298;2022-07-15T00:52:18;3.85;;;2.35;;
43504;SDS011;29098;48.184;16.298;2022-07-15T00:54:46;3.60;;;2.05;;
43504;SDS011;29098;48.184;16.298;2022-07-15T00:57:14;3.58;;;2.17;;
43504;SDS011;29098;48.184;16.298;2022-07-15T00:59:41;5.97;;;2.35;;
43504;SDS011;29098;48.184;16.298;2022-07-15T01:02:09;3.90;;;2.50;;
43504;SDS011;29098;48.184;16.298;2022-07-15T01:04:36;4.43;;;1.80;;
43504;SDS011;29098;48.184;16.298;2022-07-15T01:07:03;3.30;;;2.08;;
43504;SDS011;29098;48.184;16.298;2022-07-15T01:09:29;3.42;;;2.08;;
43504;SDS011;29098;48.184;16.298;2022-07-15T01:11:54;3.88;;;2.22;;
43504;SDS011;29098;48.184;16.298;2022-07-15T01:14:20;4.72;;;2.38;;
43504;SDS011;29098;48.184;16.298;2022-07-15T01:16:45;3.45;;;1.90;;
43504;SDS011;29098;48.184;16.298;2022-07-15T01:19:11;4.10;;;1.80;;
43504;SDS011;29098;48.184;16.298;2022-07-15T01:21:36;4.82;;;2.40;;
43504;SDS011;29098;48.184;16.298;2022-07-15T01:24:02;3.75;;;1.88;;
43504;SDS011;29098;48.184;16.298;2022-07-15T01:26:30;3.40;;;2.10;;
43504;SDS011;29098;48.184;16.298;2022-07-15T01:28:55;3.47;;;2.20;;
43504;SDS011;29098;48.184;16.298;2022-07-15T01:31:21;4.07;;;2.05;;
43504;SDS011;29098;48.184;16.298;2022-07-15T01:33:49;3.83;;;2.40;;
43504;SDS011;29098;48.184;16.298;2022-07-15T01:36:19;4.45;;;2.50;;
43504;SDS011;29098;48.184;16.298;2022-07-15T01:38:45;3.63;;;2.53;;
43504;SDS011;29098;48.184;16.298;2022-07-15T01:41:10;6.05;;;2.40;;
43504;SDS011;29098;48.184;16.298;2022-07-15T01:43:37;3.88;;;2.13;;
43504;SDS011;29098;48.184;16.298;2022-07-15T01:46:02;5.03;;;2.47;;
43504;SDS011;29098;48.184;16.298;2022-07-15T01:48:28;3.95;;;2.63;;
43504;SDS011;29098;48.184;16.298;2022-07-15T01:51:29;4.07;;;2.78;;
43504;SDS011;29098;48.184;16.298;2022-07-15T01:53:55;3.72;;;2.50;;
43504;SDS011;29098;48.184;16.298;2022-07-15T01:56:21;5.68;;;2.83;;
43504;SDS011;29098;48.184;16.298;2022-07-15T01:58:48;4.32;;;3.15;;
43504;SDS011;29098;48.184;16.298;2022-07-15T02:01:14;5.50;;;3.25;;
43504;SDS011;29098;48.184;16.298;2022-07-15T02:03:39;4.97;;;2.72;;
43504;SDS011;29098;48.184;16.298;2022-07-15T02:06:05;4.70;;;2.85;;
43504;SDS011;29098;48.184;16.298;2022-07-15T02:08:31;5.00;;;3.28;;
43504;SDS011;29098;48.184;16.298;2022-07-15T02:10:57;4.18;;;2.70;;
43504;SDS011;29098;48.184;16.298;2022-07-15T02:13:22;5.45;;;3.50;;
43504;SDS011;29098;48.184;16.298;2022-07-15T02:15:48;5.55;;;3.80;;
43504;SDS011;29098;48.184;16.298;2022-07-15T02:18:16;7.05;;;4.20;;
43504;SDS011;29098;48.184;16.298;2022-07-15T02:20:41;5.00;;;3.45;;
43504;SDS011;29098;48.184;16.298;2022-07-15T02:23:07;6.00;;;3.50;;
43504;SDS011;29098;48.184;16.298;2022-07-15T02:25:34;9.32;;;4.45;;
43504;SDS011;29098;48.184;16.298;2022-07-15T02:28:02;5.07;;;3.90;;
43504;SDS011;29098;48.184;16.298;2022-07-15T02:30:30;5.55;;;3.90;;
43504;SDS011;29098;48.184;16.298;2022-07-15T02:33:01;5.88;;;3.75;;
43504;SDS011;29098;48.184;16.298;2022-07-15T02:35:27;5.28;;;4.18;;
43504;SDS011;29098;48.184;16.298;2022-07-15T02:37:53;7.68;;;4.50;;
43504;SDS011;29098;48.184;16.298;2022-07-15T02:40:19;4.82;;;3.60;;
43504;SDS011;29098;48.184;16.298;2022-07-15T02:42:48;5.65;;;3.75;;
43504;SDS011;29098;48.184;16.298;2022-07-15T02:45:17;7.20;;;4.03;;
43504;SDS011;29098;48.184;16.298;2022-07-15T02:47:44;6.28;;;4.43;;
43504;SDS011;29098;48.184;16.298;2022-07-15T02:50:10;5.35;;;3.53;;
43504;SDS011;29098;48.184;16.298;2022-07-15T02:52:35;7.43;;;4.18;;
43504;SDS011;29098;48.184;16.298;2022-07-15T02:55:01;6.28;;;4.43;;
43504;SDS011;29098;48.184;16.298;2022-07-15T02:57:27;8.40;;;4.78;;
43504;SDS011;29098;48.184;16.298;2022-07-15T02:59:53;7.05;;;4.28;;
43504;SDS011;29098;48.184;16.298;2022-07-15T03:02:19;7.47;;;4.20;;
43504;SDS011;29098;48.184;16.298;2022-07-15T03:04:44;5.57;;;3.83;;
43504;SDS011;29098;48.184;16.298;2022-07-15T03:07:10;6.55;;;4.85;;
43504;SDS011;29098;48.184;16.298;2022-07-15T03:09:36;8.27;;;4.68;;
43504;SDS011;29098;48.184;16.298;2022-07-15T03:12:02;7.15;;;3.55;;
43504;SDS011;29098;48.184;16.298;2022-07-15T03:14:27;6.45;;;4.40;;
43504;SDS011;29098;48.184;16.298;2022-07-15T03:16:53;5.95;;;4.10;;
43504;SDS011;29098;48.184;16.298;2022-07-15T03:19:18;6.00;;;4.20;;
43504;SDS011;29098;48.184;16.298;2022-07-15T03:21:46;6.90;;;4.35;;
43504;SDS011;29098;48.184;16.298;2022-07-15T03:24:13;5.63;;;4.03;;
43504;SDS011;29098;48.184;16.298;2022-07-15T03:26:39;6.43;;;4.13;;
43504;SDS011;29098;48.184;16.298;2022-07-15T03:29:05;9.48;;;6.32;;
43504;SDS011;29098;48.184;16.298;2022-07-15T03:31:30;7.28;;;4.55;;
43504;SDS011;29098;48.184;16.298;2022-07-15T03:33:56;6.90;;;4.80;;
43504;SDS011;29098;48.184;16.298;2022-07-15T03:36:21;6.00;;;4.47;;
43504;SDS011;29098;48.184;16.298;2022-07-15T03:38:48;7.95;;;5.10;;
43504;SDS011;29098;48.184;16.298;2022-07-15T03:41:17;7.10;;;4.78;;
43504;SDS011;29098;48.184;16.298;2022-07-15T03:43:43;6.10;;;4.30;;
43504;SDS011;29098;48.184;16.298;2022-07-15T03:46:09;6.72;;;4.63;;
43504;SDS011;29098;48.184;16.298;2022-07-15T03:48:34;9.52;;;4.93;;
43504;SDS011;29098;48.184;16.298;2022-07-15T03:51:00;9.60;;;4.82;;
43504;SDS011;29098;48.184;16.298;2022-07-15T03:53:25;7.20;;;5.15;;
43504;SDS011;29098;48.184;16.298;2022-07-15T03:55:51;7.65;;;4.68;;
43504;SDS011;29098;48.184;16.298;2022-07-15T03:58:17;7.32;;;5.15;;
43504;SDS011;29098;48.184;16.298;2022-07-15T04:00:42;9.07;;;5.47;;
43504;SDS011;29098;48.184;16.298;2022-07-15T04:03:08;6.70;;;4.85;;
43504;SDS011;29098;48.184;16.298;2022-07-15T04:05:34;10.35;;;5.40;;
43504;SDS011;29098;48.184;16.298;2022-07-15T04:07:59;8.10;;;5.93;;
43504;SDS011;29098;48.184;16.298;2022-07-15T04:10:25;9.32;;;6.38;;
43504;SDS011;29098;48.184;16.298;2022-07-15T04:12:51;9.45;;;5.22;;
43504;SDS011;29098;48.184;16.298;2022-07-15T04:15:16;9.55;;;5.63;;
43504;SDS011;29098;48.184;16.298;2022-07-15T04:17:42;8.55;;;5.43;;
43504;SDS011;29098;48.184;16.298;2022-07-15T04:20:08;9.40;;;5.88;;
43504;SDS011;29098;48.184;16.298;2022-07-15T04:22:40;7.55;;;5.57;;
43504;SDS011;29098;48.184;16.298;2022-07-15T04:25:08;9.40;;;5.68;;
43504;SDS011;29098;48.184;16.298;2022-07-15T04:27:35;9.68;;;6.20;;
43504;SDS011;29098;48.184;16.298;2022-07-15T04:30:00;8.32;;;6.47;;
43504;SDS011;29098;48.184;16.298;2022-07-15T04:32:26;7.88;;;5.88;;
43504;SDS011;29098;48.184;16.298;2022-07-15T04:34:52;7.22;;;5.88;;
43504;SDS011;29098;48.184;16.298;2022-07-15T04:37:18;9.00;;;5.90;;
43504;SDS011;29098;48.184;16.298;2022-07-15T04:39:43;8.73;;;5.93;;
43504;SDS011;29098;48.184;16.298;2022-07-15T04:42:09;10.13;;;6.50;;
43504;SDS011;29098;48.184;16.298;2022-07-15T04:44:35;8.35;;;6.10;;
43504;SDS011;29098;48.184;16.298;2022-07-15T04:47:00;8.15;;;6.00;;
43504;SDS011;29098;48.184;16.298;2022-07-15T04:49:28;12.25;;;7.50;;
43504;SDS011;29098;48.184;16.298;2022-07-15T04:52:12;8.25;;;6.05;;
43504;SDS011;29098;48.184;16.298;2022-07-15T04:54:38;8.65;;;6.20;;
43504;SDS011;29098;48.184;16.298;2022-07-15T04:57:04;10.15;;;7.28;;
43504;SDS011;29098;48.184;16.298;2022-07-15T04:59:29;8.80;;;6.15;;
43504;SDS011;29098;48.184;16.298;2022-07-15T05:01:55;11.07;;;6.72;;
43504;SDS011;29098;48.184;16.298;2022-07-15T05:04:21;8.90;;;5.60;;
43504;SDS011;29098;48.184;16.298;2022-07-15T05:06:47;7.55;;;6.35;;
43504;SDS011;29098;48.184;16.298;2022-07-15T05:09:12;9.60;;;6.03;;
43504;SDS011;29098;48.184;16.298;2022-07-15T05:11:38;8.18;;;6.45;;
43504;SDS011;29098;48.184;16.298;2022-07-15T05:14:03;12.30;;;6.85;;
43504;SDS011;29098;48.184;16.298;2022-07-15T05:16:29;10.20;;;6.18;;
43504;SDS011;29098;48.184;16.298;2022-07-15T05:18:55;6.97;;;5.60;;
43504;SDS011;29098;48.184;16.298;2022-07-15T05:21:21;8.32;;;5.47;;
43504;SDS011;29098;48.184;16.298;2022-07-15T05:23:47;8.65;;;6.20;;
43504;SDS011;29098;48.184;16.298;2022-07-15T05:26:12;9.00;;;7.05;;
43504;SDS011;29098;48.184;16.298;2022-07-15T05:28:38;13.30;;;7.18;;
43504;SDS011;29098;48.184;16.298;2022-07-15T05:31:04;8.18;;;6.70;;
43504;SDS011;29098;48.184;16.298;2022-07-15T05:33:30;10.60;;;6.03;;
43504;SDS011;29098;48.184;16.298;2022-07-15T05:35:56;8.27;;;5.55;;
43504;SDS011;29098;48.184;16.298;2022-07-15T05:38:22;10.77;;;5.35;;
43504;SDS011;29098;48.184;16.298;2022-07-15T05:40:48;7.68;;;5.07;;
43504;SDS011;29098;48.184;16.298;2022-07-15T05:43:14;9.05;;;5.63;;
43504;SDS011;29098;48.184;16.298;2022-07-15T05:45:39;9.63;;;5.28;;
43504;SDS011;29098;48.184;16.298;2022-07-15T05:48:05;7.60;;;5.15;;
43504;SDS011;29098;48.184;16.298;2022-07-15T05:50:31;9.05;;;5.25;;
43504;SDS011;29098;48.184;16.298;2022-07-15T05:52:57;7.10;;;5.35;;
43504;SDS011;29098;48.184;16.298;2022-07-15T05:55:22;8.57;;;5.50;;
43504;SDS011;29098;48.184;16.298;2022-07-15T05:57:48;8.68;;;5.43;;
43504;SDS011;29098;48.184;16.298;2022-07-15T06:00:14;9.45;;;4.90;;
43504;SDS011;29098;48.184;16.298;2022-07-15T06:02:40;7.85;;;4.45;;
43504;SDS011;29098;48.184;16.298;2022-07-15T06:05:07;6.80;;;4.40;;
43504;SDS011;29098;48.184;16.298;2022-07-15T06:07:33;8.65;;;4.45;;
43504;SDS011;29098;48.184;16.298;2022-07-15T06:10:00;7.93;;;4.95;;
43504;SDS011;29098;48.184;16.298;2022-07-15T06:12:26;6.63;;;4.05;;
43504;SDS011;29098;48.184;16.298;2022-07-15T06:14:51;7.88;;;3.00;;
43504;SDS011;29098;48.184;16.298;2022-07-15T06:17:17;6.35;;;3.45;;
43504;SDS011;29098;48.184;16.298;2022-07-15T06:19:42;6.28;;;3.40;;
43504;SDS011;29098;48.184;16.298;2022-07-15T06:22:08;7.30;;;3.35;;
43504;SDS011;29098;48.184;16.298;2022-07-15T06:24:34;6.75;;;3.63;;
43504;SDS011;29098;48.184;16.298;2022-07-15T06:26:59;6.32;;;3.25;;
43504;SDS011;29098;48.184;16.298;2022-07-15T06:29:25;6.68;;;3.53;;
43504;SDS011;29098;48.184;16.298;2022-07-15T06:31:50;6.65;;;3.25;;
43504;SDS011;29098;48.184;16.298;2022-07-15T06:34:16;6.32;;;3.53;;
43504;SDS011;29098;48.184;16.298;2022-07-15T06:36:42;6.95;;;3.13;;
43504;SDS011;29098;48.184;16.298;2022-07-15T06:39:08;6.55;;;3.15;;
43504;SDS011;29098;48.184;16.298;2022-07-15T06:41:33;6.38;;;3.08;;
43504;SDS011;29098;48.184;16.298;2022-07-15T06:43:59;5.60;;;3.05;;
43504;SDS011;29098;48.184;16.298;2022-07-15T06:46:26;5.57;;;3.20;;
43504;SDS011;29098;48.184;16.298;2022-07-15T06:48:51;5.68;;;3.22;;
43504;SDS011;29098;48.184;16.298;2022-07-15T06:51:17;7.72;;;3.78;;
43504;SDS011;29098;48.184;16.298;2022-07-15T06:53:42;9.40;;;4.00;;
43504;SDS011;29098;48.184;16.298;2022-07-15T06:56:08;5.60;;;2.70;;
43504;SDS011;29098;48.184;16.298;2022-07-15T06:58:34;4.47;;;2.80;;
43504;SDS011;29098;48.184;16.298;2022-07-15T07:00:59;3.95;;;2.47;;
43504;SDS011;29098;48.184;16.298;2022-07-15T07:03:25;5.93;;;3.30;;
43504;SDS011;29098;48.184;16.298;2022-07-15T07:05:51;7.93;;;3.75;;
43504;SDS011;29098;48.184;16.298;2022-07-15T07:08:17;5.50;;;2.50;;
43504;SDS011;29098;48.184;16.298;2022-07-15T07:10:42;3.50;;;2.35;;
43504;SDS011;29098;48.184;16.298;2022-07-15T07:13:08;7.00;;;3.05;;
43504;SDS011;29098;48.184;16.298;2022-07-15T07:15:34;6.30;;;3.20;;
43504;SDS011;29098;48.184;16.298;2022-07-15T07:17:59;5.53;;;3.20;;
43504;SDS011;29098;48.184;16.298;2022-07-15T07:20:25;6.88;;;2.90;;
43504;SDS011;29098;48.184;16.298;2022-07-15T07:22:50;7.97;;;3.50;;
43504;SDS011;29098;48.184;16.298;2022-07-15T07:25:16;4.38;;;2.58;;
43504;SDS011;29098;48.184;16.298;2022-07-15T07:27:41;4.85;;;2.38;;
43504;SDS011;29098;48.184;16.298;2022-07-15T07:30:07;4.90;;;2.47;;
43504;SDS011;29098;48.184;16.298;2022-07-15T07:32:33;6.82;;;2.58;;
43504;SDS011;29098;48.184;16.298;2022-07-15T07:34:59;6.32;;;2.67;;
43504;SDS011;29098;48.184;16.298;2022-07-15T07:37:25;3.45;;;2.10;;
43504;SDS011;29098;48.184;16.298;2022-07-15T07:39:51;8.02;;;2.50;;
43504;SDS011;29098;48.184;16.298;2022-07-15T07:42:17;5.25;;;2.42;;
43504;SDS011;29098;48.184;16.298;2022-07-15T07:44:44;5.03;;;2.17;;
43504;SDS011;29098;48.184;16.298;2022-07-15T07:47:10;4.38;;;2.50;;
43504;SDS011;29098;48.184;16.298;2022-07-15T07:49:35;4.20;;;2.10;;
43504;SDS011;29098;48.184;16.298;2022-07-15T07:52:01;3.72;;;2.20;;
43504;SDS011;29098;48.184;16.298;2022-07-15T07:54:28;4.25;;;2.30;;
43504;SDS011;29098;48.184;16.298;2022-07-15T07:56:54;7.18;;;2.00;;
43504;SDS011;29098;48.184;16.298;2022-07-15T07:59:20;6.45;;;2.38;;
43504;SDS011;29098;48.184;16.298;2022-07-15T08:01:46;5.20;;;1.90;;
43504;SDS011;29098;48.184;16.298;2022-07-15T08:04:11;7.07;;;2.40;;
43504;SDS011;29098;48.184;16.298;2022-07-15T08:06:39;4.95;;;2.75;;
43504;SDS011;29098;48.184;16.298;2022-07-15T08:09:05;5.60;;;1.75;;
43504;SDS011;29098;48.184;16.298;2022-07-15T08:11:31;3.90;;;1.75;;
43504;SDS011;29098;48.184;16.298;2022-07-15T08:13:56;7.65;;;2.28;;
43504;SDS011;29098;48.184;16.298;2022-07-15T08:16:22;6.55;;;2.05;;
43504;SDS011;29098;48.184;16.298;2022-07-15T08:18:48;3.22;;;1.73;;
43504;SDS011;29098;48.184;16.298;2022-07-15T08:21:13;4.43;;;1.90;;
43504;SDS011;29098;48.184;16.298;2022-07-15T08:23:40;3.60;;;1.80;;
43504;SDS011;29098;48.184;16.298;2022-07-15T08:26:05;4.38;;;1.60;;
43504;SDS011;29098;48.184;16.298;2022-07-15T08:28:33;2.90;;;1.50;;
43504;SDS011;29098;48.184;16.298;2022-07-15T08:30:59;5.40;;;1.58;;
43504;SDS011;29098;48.184;16.298;2022-07-15T08:33:24;5.88;;;1.48;;
43504;SDS011;29098;48.184;16.298;2022-07-15T08:35:50;4.20;;;1.65;;
43504;SDS011;29098;48.184;16.298;2022-07-15T08:38:15;4.00;;;1.38;;
43504;SDS011;29098;48.184;16.298;2022-07-15T08:40:41;6.78;;;1.63;;
43504;SDS011;29098;48.184;16.298;2022-07-15T08:43:09;4.88;;;1.65;;
43504;SDS011;29098;48.184;16.298;2022-07-15T08:45:36;4.15;;;1.70;;
43504;SDS011;29098;48.184;16.298;2022-07-15T08:48:04;6.50;;;1.90;;
43504;SDS011;29098;48.184;16.298;2022-07-15T08:50:31;4.90;;;2.13;;
43504;SDS011;29098;48.184;16.298;2022-07-15T08:52:58;7.28;;;1.67;;
43504;SDS011;29098;48.184;16.298;2022-07-15T08:55:23;5.60;;;1.85;;
43504;SDS011;29098;48.184;16.298;2022-07-15T08:57:49;3.95;;;1.70;;
43504;SDS011;29098;48.184;16.298;2022-07-15T09:00:17;3.53;;;1.70;;
43504;SDS011;29098;48.184;16.298;2022-07-15T09:02:44;5.80;;;1.50;;
43504;SDS011;29098;48.184;16.298;2022-07-15T09:05:23;2.97;;;1.50;;
43504;SDS011;29098;48.184;16.298;2022-07-15T09:16:04;6.22;;;1.77;;
43504;SDS011;29098;48.184;16.298;2022-07-15T09:18:38;3.55;;;1.48;;
43504;SDS011;29098;48.184;16.298;2022-07-15T09:21:15;3.22;;;1.33;;
43504;SDS011;29098;48.184;16.298;2022-07-15T09:23:45;5.95;;;1.73;;
43504;SDS011;29098;48.184;16.298;2022-07-15T09:26:25;3.85;;;1.70;;
43504;SDS011;29098;48.184;16.298;2022-07-15T09:28:53;4.43;;;1.42;;
43504;SDS011;29098;48.184;16.298;2022-07-15T09:31:33;3.20;;;1.50;;
43504;SDS011;29098;48.184;16.298;2022-07-15T09:34:19;3.90;;;1.70;;
43504;SDS011;29098;48.184;16.298;2022-07-15T09:36:47;4.40;;;1.30;;
43504;SDS011;29098;48.184;16.298;2022-07-15T09:39:19;2.95;;;1.35;;
43504;SDS011;29098;48.184;16.298;2022-07-15T09:41:47;5.68;;;1.80;;
43504;SDS011;29098;48.184;16.298;2022-07-15T09:44:14;2.42;;;1.30;;
43504;SDS011;29098;48.184;16.298;2022-07-15T09:49:17;6.20;;;1.70;;
43504;SDS011;29098;48.184;16.298;2022-07-15T09:54:29;3.20;;;1.75;;
43504;SDS011;29098;48.184;16.298;2022-07-15T09:56:58;2.42;;;1.30;;
43504;SDS011;29098;48.184;16.298;2022-07-15T09:59:27;3.15;;;1.50;;
43504;SDS011;29098;48.184;16.298;2022-07-15T10:01:54;4.13;;;1.85;;
43504;SDS011;29098;48.184;16.298;2022-07-15T10:04:21;3.97;;;1.75;;
43504;SDS011;29098;48.184;16.298;2022-07-15T10:06:50;7.05;;;2.00;;
43504;SDS011;29098;48.184;16.298;2022-07-15T10:09:27;2.42;;;1.48;;
43504;SDS011;29098;48.184;16.298;2022-07-15T10:11:59;4.63;;;1.60;;
43504;SDS011;29098;48.184;16.298;2022-07-15T10:14:35;4.82;;;1.52;;
43504;SDS011;29098;48.184;16.298;2022-07-15T10:19:40;5.70;;;1.70;;
43504;SDS011;29098;48.184;16.298;2022-07-15T10:30:41;5.63;;;2.33;;
43504;SDS011;29098;48.184;16.298;2022-07-15T10:33:09;5.30;;;1.98;;
43504;SDS011;29098;48.184;16.298;2022-07-15T10:38:21;4.60;;;1.85;;
43504;SDS011;29098;48.184;16.298;2022-07-15T10:46:20;6.55;;;2.35;;
43504;SDS011;29098;48.184;16.298;2022-07-15T10:56:47;4.95;;;2.78;;
43504;SDS011;29098;48.184;16.298;2022-07-15T10:59:15;4.13;;;2.00;;
43504;SDS011;29098;48.184;16.298;2022-07-15T11:01:46;4.57;;;2.00;;
43504;SDS011;29098;48.184;16.298;2022-07-15T11:04:22;4.75;;;1.95;;
43504;SDS011;29098;48.184;16.298;2022-07-15T11:12:19;4.70;;;2.05;;
43504;SDS011;29098;48.184;16.298;2022-07-15T11:15:12;3.72;;;2.28;;
43504;SDS011;29098;48.184;16.298;2022-07-15T11:17:40;5.03;;;2.20;;
43504;SDS011;29098;48.184;16.298;2022-07-15T11:20:08;3.78;;;2.05;;
43504;SDS011;29098;48.184;16.298;2022-07-15T11:22:46;3.40;;;1.92;;
43504;SDS011;29098;48.184;16.298;2022-07-15T11:25:30;5.35;;;1.92;;
43504;SDS011;29098;48.184;16.298;2022-07-15T11:28:05;8.20;;;2.10;;
43504;SDS011;29098;48.184;16.298;2022-07-15T11:30:35;4.30;;;2.28;;
43504;SDS011;29098;48.184;16.298;2022-07-15T11:33:03;2.75;;;1.73;;
43504;SDS011;29098;48.184;16.298;2022-07-15T11:35:30;3.13;;;1.80;;
43504;SDS011;29098;48.184;16.298;2022-07-15T11:37:56;4.38;;;2.20;;
43504;SDS011;29098;48.184;16.298;2022-07-15T11:40:23;3.58;;;2.17;;
43504;SDS011;29098;48.184;16.298;2022-07-15T11:43:11;3.53;;;2.13;;
43504;SDS011;29098;48.184;16.298;2022-07-15T11:46:00;3.42;;;1.63;;
43504;SDS011;29098;48.184;16.298;2022-07-15T11:48:26;7.05;;;2.25;;
43504;SDS011;29098;48.184;16.298;2022-07-15T11:50:55;4.63;;;1.90;;
43504;SDS011;29098;48.184;16.298;2022-07-15T11:53:22;6.57;;;2.20;;
43504;SDS011;29098;48.184;16.298;2022-07-15T11:55:50;4.93;;;1.60;;
43504;SDS011;29098;48.184;16.298;2022-07-15T12:01:04;4.65;;;1.70;;
43504;SDS011;29098;48.184;16.298;2022-07-15T12:03:34;6.32;;;1.98;;
43504;SDS011;29098;48.184;16.298;2022-07-15T12:06:12;10.98;;;2.00;;
43504;SDS011;29098;48.184;16.298;2022-07-15T12:08:49;4.53;;;1.95;;
43504;SDS011;29098;48.184;16.298;2022-07-15T12:13:57;5.93;;;2.13;;
43504;SDS011;29098;48.184;16.298;2022-07-15T12:19:07;4.72;;;2.00;;
43504;SDS011;29098;48.184;16.298;2022-07-15T12:21:35;4.80;;;1.85;;
43504;SDS011;29098;48.184;16.298;2022-07-15T12:24:09;4.45;;;1.77;;
43504;SDS011;29098;48.184;16.298;2022-07-15T12:26:41;6.90;;;1.80;;
43504;SDS011;29098;48.184;16.298;2022-07-15T12:29:10;3.75;;;1.98;;
43504;SDS011;29098;48.184;16.298;2022-07-15T12:31:37;4.03;;;1.85;;
43504;SDS011;29098;48.184;16.298;2022-07-15T12:34:04;4.15;;;1.92;;
43504;SDS011;29098;48.184;16.298;2022-07-15T12:36:31;4.43;;;1.98;;
43504;SDS011;29098;48.184;16.298;2022-07-15T12:41:38;4.03;;;2.45;;
43504;SDS011;29098;48.184;16.298;2022-07-15T12:44:05;5.10;;;2.28;;
43504;SDS011;29098;48.184;16.298;2022-07-15T12:54:45;5.32;;;2.45;;
43504;SDS011;29098;48.184;16.298;2022-07-15T12:57:21;3.47;;;1.95;;
43504;SDS011;29098;48.184;16.298;2022-07-15T13:00:00;4.75;;;1.83;;
43504;SDS011;29098;48.184;16.298;2022-07-15T13:02:29;4.07;;;1.95;;
43504;SDS011;29098;48.184;16.298;2022-07-15T13:04:56;4.90;;;1.67;;
43504;SDS011;29098;48.184;16.298;2022-07-15T13:07:22;4.30;;;1.65;;
43504;SDS011;29098;48.184;16.298;2022-07-15T13:09:47;7.15;;;2.78;;
43504;SDS011;29098;48.184;16.298;2022-07-15T13:12:13;3.70;;;1.67;;
43504;SDS011;29098;48.184;16.298;2022-07-15T13:14:39;3.75;;;1.60;;
43504;SDS011;29098;48.184;16.298;2022-07-15T13:17:05;3.75;;;1.88;;
43504;SDS011;29098;48.184;16.298;2022-07-15T13:19:32;5.15;;;1.80;;
43504;SDS011;29098;48.184;16.298;2022-07-15T13:22:01;4.85;;;1.88;;
43504;SDS011;29098;48.184;16.298;2022-07-15T13:24:27;4.22;;;1.90;;
43504;SDS011;29098;48.184;16.298;2022-07-15T13:26:53;3.42;;;1.67;;
43504;SDS011;29098;48.184;16.298;2022-07-15T13:29:18;4.00;;;2.15;;
43504;SDS011;29098;48.184;16.298;2022-07-15T13:31:44;5.88;;;1.83;;
43504;SDS011;29098;48.184;16.298;2022-07-15T13:34:12;5.13;;;1.90;;
43504;SDS011;29098;48.184;16.298;2022-07-15T13:36:37;3.70;;;1.95;;
43504;SDS011;29098;48.184;16.298;2022-07-15T13:39:03;5.03;;;1.67;;
43504;SDS011;29098;48.184;16.298;2022-07-15T13:41:30;4.28;;;1.90;;
43504;SDS011;29098;48.184;16.298;2022-07-15T13:43:56;3.53;;;1.52;;
43504;SDS011;29098;48.184;16.298;2022-07-15T13:46:21;3.08;;;1.70;;
43504;SDS011;29098;48.184;16.298;2022-07-15T13:48:47;6.88;;;2.05;;
43504;SDS011;29098;48.184;16.298;2022-07-15T13:51:12;5.68;;;1.83;;
43504;SDS011;29098;48.184;16.298;2022-07-15T13:53:51;4.20;;;2.10;;
43504;SDS011;29098;48.184;16.298;2022-07-15T13:56:17;3.17;;;1.52;;
43504;SDS011;29098;48.184;16.298;2022-07-15T13:58:43;4.43;;;1.80;;
43504;SDS011;29098;48.184;16.298;2022-07-15T14:01:09;2.75;;;1.65;;
43504;SDS011;29098;48.184;16.298;2022-07-15T14:03:35;4.97;;;1.90;;
43504;SDS011;29098;48.184;16.298;2022-07-15T14:06:01;3.50;;;1.73;;
43504;SDS011;29098;48.184;16.298;2022-07-15T14:08:26;3.53;;;1.60;;
43504;SDS011;29098;48.184;16.298;2022-07-15T14:10:52;3.83;;;1.60;;
43504;SDS011;29098;48.184;16.298;2022-07-15T14:13:17;3.65;;;1.73;;
43504;SDS011;29098;48.184;16.298;2022-07-15T14:15:43;3.30;;;1.70;;
43504;SDS011;29098;48.184;16.298;2022-07-15T14:18:09;4.57;;;1.80;;
43504;SDS011;29098;48.184;16.298;2022-07-15T14:20:34;4.88;;;1.65;;
43504;SDS011;29098;48.184;16.298;2022-07-15T14:23:00;6.13;;;1.83;;
43504;SDS011;29098;48.184;16.298;2022-07-15T14:25:26;4.63;;;2.22;;
43504;SDS011;29098;48.184;16.298;2022-07-15T14:27:52;4.25;;;1.90;;
43504;SDS011;29098;48.184;16.298;2022-07-15T14:30:18;6.38;;;1.60;;
43504;SDS011;29098;48.184;16.298;2022-07-15T14:32:43;4.15;;;1.80;;
43504;SDS011;29098;48.184;16.298;2022-07-15T14:35:09;4.03;;;2.00;;
43504;SDS011;29098;48.184;16.298;2022-07-15T14:37:35;4.10;;;2.08;;
43504;SDS011;29098;48.184;16.298;2022-07-15T14:40:03;4.30;;;2.10;;
43504;SDS011;29098;48.184;16.298;2022-07-15T14:42:30;4.30;;;1.70;;
43504;SDS011;29098;48.184;16.298;2022-07-15T14:44:56;4.05;;;1.75;;
43504;SDS011;29098;48.184;16.298;2022-07-15T14:47:22;3.63;;;2.05;;
43504;SDS011;29098;48.184;16.298;2022-07-15T14:49:47;3.45;;;1.77;;
43504;SDS011;29098;48.184;16.298;2022-07-15T14:52:13;4.72;;;1.58;;
43504;SDS011;29098;48.184;16.298;2022-07-15T14:54:39;5.05;;;2.13;;
43504;SDS011;29098;48.184;16.298;2022-07-15T14:57:04;3.35;;;1.75;;
43504;SDS011;29098;48.184;16.298;2022-07-15T14:59:30;3.90;;;1.90;;
43504;SDS011;29098;48.184;16.298;2022-07-15T15:01:55;5.03;;;2.03;;
43504;SDS011;29098;48.184;16.298;2022-07-15T15:04:21;3.85;;;1.65;;
43504;SDS011;29098;48.184;16.298;2022-07-15T15:06:47;4.63;;;2.15;;
43504;SDS011;29098;48.184;16.298;2022-07-15T15:09:13;3.85;;;1.90;;
43504;SDS011;29098;48.184;16.298;2022-07-15T15:11:39;4.60;;;2.05;;
43504;SDS011;29098;48.184;16.298;2022-07-15T15:14:04;3.95;;;1.80;;
43504;SDS011;29098;48.184;16.298;2022-07-15T15:16:30;3.85;;;2.00;;
43504;SDS011;29098;48.184;16.298;2022-07-15T15:18:56;5.03;;;2.00;;
43504;SDS011;29098;48.184;16.298;2022-07-15T15:21:21;3.38;;;1.67;;
43504;SDS011;29098;48.184;16.298;2022-07-15T15:23:47;4.10;;;2.05;;
43504;SDS011;29098;48.184;16.298;2022-07-15T15:26:12;7.38;;;2.97;;
43504;SDS011;29098;48.184;16.298;2022-07-15T15:31:17;4.53;;;2.10;;
43504;SDS011;29098;48.184;16.298;2022-07-15T15:33:42;4.60;;;1.98;;
43504;SDS011;29098;48.184;16.298;2022-07-15T15:36:08;3.88;;;2.10;;
43504;SDS011;29098;48.184;16.298;2022-07-15T15:38:34;3.88;;;1.92;;
43504;SDS011;29098;48.184;16.298;2022-07-15T15:40:59;4.80;;;2.20;;